Time;durP1;ratioP1;P1;durP2;ratioP2;P2;SDS_P1;SDS_P2;PMS_P1;PMS_P2;Temp;Humidity;BMP_temperature;BMP_pressure;BME280_temperature;BME280_humidity;BME280_pressure;Samples;Min_cycle;Max_cycle;Signal;HPM_P1;HPM_P2
2022/10/26 00:00:43;;;;;;;5.77;5.30;;;8.10;63.40;;;;;;5031227;28;20528;-53
2022/10/26 00:03:10;;;;;;;5.70;5.10;;;8.00;65.80;;;;;;5030890;28;20948;-53
2022/10/26 00:05:37;;;;;;;5.40;4.97;;;8.00;67.10;;;;;;5030778;28;20533;-51
2022/10/26 00:08:04;;;;;;;6.67;5.80;;;8.00;64.90;;;;;;5027714;28;20482;-51
2022/10/26 00:10:30;;;;;;;5.60;5.07;;;8.00;65.60;;;;;;5029359;28;20459;-53
2022/10/26 00:12:57;;;;;;;6.10;5.53;;;8.00;67.20;;;;;;5032392;28;20473;-52
2022/10/26 00:15:25;;;;;;;11.23;5.80;;;7.90;69.00;;;;;;5029897;28;20521;-52
2022/10/26 00:17:51;;;;;;;8.77;6.67;;;7.90;70.50;;;;;;5030643;28;20944;-52
2022/10/26 00:20:18;;;;;;;9.23;6.97;;;7.90;68.10;;;;;;5028114;28;20522;-51
2022/10/26 00:22:44;;;;;;;7.17;6.00;;;7.90;69.20;;;;;;5027547;28;20464;-53
2022/10/26 00:25:11;;;;;;;8.80;6.47;;;7.90;65.90;;;;;;5025117;28;21058;-53
2022/10/26 00:27:38;;;;;;;8.33;6.73;;;7.90;66.50;;;;;;5030642;28;21377;-53
2022/10/26 00:30:06;;;;;;;7.07;5.77;;;7.90;66.60;;;;;;5030614;28;20458;-53
2022/10/26 00:32:34;;;;;;;7.30;6.60;;;7.80;68.00;;;;;;5029929;28;21236;-52
2022/10/26 00:35:01;;;;;;;7.27;6.63;;;7.80;67.80;;;;;;5020706;28;20851;-51
2022/10/26 00:37:28;;;;;;;13.40;5.87;;;7.80;68.00;;;;;;5029670;28;20509;-53
2022/10/26 00:39:54;;;;;;;7.93;5.70;;;7.80;67.50;;;;;;5029466;28;20532;-52
2022/10/26 00:42:23;;;;;;;8.10;6.97;;;7.80;66.30;;;;;;5031232;28;20520;-52
2022/10/26 00:44:59;;;;;;;9.10;6.50;;;7.80;68.30;;;;;;5028874;28;20481;-52
2022/10/26 00:47:37;;;;;;;14.10;8.80;;;7.80;68.70;;;;;;5029563;28;20514;-52
2022/10/26 00:50:08;;;;;;;12.40;7.73;;;7.70;70.40;;;;;;5029701;28;20463;-52
2022/10/26 00:52:36;;;;;;;11.07;7.97;;;7.70;69.40;;;;;;5025189;28;20463;-51
2022/10/26 00:55:03;;;;;;;8.50;7.60;;;7.70;70.10;;;;;;5027461;28;20597;-51
2022/10/26 00:57:30;;;;;;;11.20;7.43;;;7.70;69.20;;;;;;5025428;28;20443;-52
2022/10/26 00:59:59;;;;;;;12.00;8.60;;;7.70;70.10;;;;;;5027997;28;20508;-52
2022/10/26 01:02:26;;;;;;;9.23;7.53;;;7.70;70.90;;;;;;5025981;28;20929;-52
2022/10/26 01:04:55;;;;;;;11.37;7.57;;;7.60;71.30;;;;;;5030929;28;22642;-52
2022/10/26 01:07:22;;;;;;;8.30;7.43;;;7.60;71.90;;;;;;5026777;28;20482;-51
2022/10/26 01:09:49;;;;;;;10.70;7.50;;;7.50;72.80;;;;;;5031297;28;20446;-52
2022/10/26 01:12:15;;;;;;;10.37;7.03;;;7.50;73.40;;;;;;5027779;28;20509;-53
2022/10/26 01:14:42;;;;;;;9.07;5.80;;;7.60;70.50;;;;;;5031795;28;20525;-53
2022/10/26 01:17:24;;;;;;;7.97;5.23;;;7.50;71.40;;;;;;5028758;28;20458;-51
2022/10/26 01:20:18;;;;;;;10.80;5.40;;;7.50;70.60;;;;;;5028385;28;20825;-51
2022/10/26 01:22:53;;;;;;;8.40;6.33;;;7.50;70.80;;;;;;5026877;28;20451;-53
2022/10/26 01:25:39;;;;;;;7.87;5.57;;;7.50;70.00;;;;;;5021874;28;21035;-51
2022/10/26 01:28:13;;;;;;;20.13;4.50;;;7.50;70.80;;;;;;5023512;28;20532;-52
2022/10/26 01:30:44;;;;;;;8.90;4.70;;;7.50;70.50;;;;;;5030880;28;20548;-52
2022/10/26 01:33:20;;;;;;;8.27;4.60;;;7.50;69.50;;;;;;5028178;28;20486;-51
2022/10/26 01:35:54;;;;;;;8.60;4.17;;;7.40;70.50;;;;;;5030020;28;20486;-54
2022/10/26 01:38:28;;;;;;;8.57;4.13;;;7.40;69.60;;;;;;5028427;28;20459;-51
2022/10/26 01:40:59;;;;;;;7.67;4.43;;;7.40;70.10;;;;;;5023585;28;20493;-51
2022/10/26 01:43:30;;;;;;;9.20;4.23;;;7.50;69.50;;;;;;5029282;28;20490;-52
2022/10/26 01:45:58;;;;;;;4.97;3.50;;;7.40;69.50;;;;;;5030854;28;20524;-54
2022/10/26 01:48:27;;;;;;;7.13;3.90;;;7.50;68.20;;;;;;5027319;28;20505;-51
2022/10/26 01:50:56;;;;;;;3.63;3.33;;;7.40;70.50;;;;;;5025411;28;20525;-51
2022/10/26 01:53:22;;;;;;;9.60;3.90;;;7.40;70.80;;;;;;5028842;28;20549;-53
2022/10/26 01:55:51;;;;;;;5.40;3.70;;;7.30;70.40;;;;;;5011779;28;20463;-53
2022/10/26 01:58:43;;;;;;;14.83;3.63;;;7.40;70.20;;;;;;5024926;28;20451;-52
2022/10/26 02:01:24;;;;;;;9.00;3.70;;;7.30;69.50;;;;;;5025760;28;20505;-53
2022/10/26 02:03:58;;;;;;;9.53;3.70;;;7.30;70.40;;;;;;5026447;28;20525;-53
2022/10/26 02:06:35;;;;;;;5.17;3.00;;;7.30;69.50;;;;;;5029198;28;20829;-51
2022/10/26 02:09:10;;;;;;;6.77;3.17;;;7.20;70.70;;;;;;5034929;28;20545;-54
2022/10/26 02:11:42;;;;;;;9.30;3.40;;;7.20;69.40;;;;;;5031186;28;20466;-52
2022/10/26 02:14:13;;;;;;;28.83;3.87;;;7.20;69.80;;;;;;5028605;28;20496;-51
2022/10/26 02:16:52;;;;;;;3.73;3.37;;;7.10;70.80;;;;;;5034311;28;20446;-52
2022/10/26 02:19:28;;;;;;;3.40;3.10;;;7.10;71.40;;;;;;5033388;28;20458;-52
2022/10/26 02:21:59;;;;;;;6.40;3.00;;;7.00;71.10;;;;;;5029716;28;20458;-52
2022/10/26 02:24:28;;;;;;;10.70;3.43;;;7.00;71.90;;;;;;5032452;28;20514;-51
2022/10/26 02:26:57;;;;;;;6.03;4.13;;;7.00;72.10;;;;;;5033979;28;20490;-52
2022/10/26 02:29:24;;;;;;;8.47;3.50;;;6.90;71.60;;;;;;5034058;28;20556;-52
2022/10/26 02:31:54;;;;;;;6.47;3.23;;;6.90;73.70;;;;;;5032590;28;20513;-52
2022/10/26 02:34:23;;;;;;;3.03;2.70;;;6.90;72.20;;;;;;5031982;28;20493;-52
2022/10/26 02:36:53;;;;;;;12.40;3.57;;;6.90;72.10;;;;;;5027141;28;20463;-53
2022/10/26 02:39:20;;;;;;;4.47;3.60;;;6.90;71.80;;;;;;5034670;28;20474;-53
2022/10/26 02:41:50;;;;;;;3.47;3.17;;;6.80;72.20;;;;;;5031925;28;20552;-51
2022/10/26 02:44:21;;;;;;;7.63;4.17;;;6.80;72.90;;;;;;5031942;28;20482;-53
2022/10/26 02:46:49;;;;;;;5.27;3.20;;;6.70;77.10;;;;;;5031541;28;20865;-52
2022/10/26 02:49:17;;;;;;;5.83;3.57;;;6.70;75.90;;;;;;5034194;28;20475;-53
2022/10/26 02:51:49;;;;;;;4.00;3.40;;;6.60;75.50;;;;;;5032440;28;20463;-53
2022/10/26 02:54:24;;;;;;;5.77;3.20;;;6.60;76.40;;;;;;5030838;28;20991;-54
2022/10/26 02:56:54;;;;;;;8.30;2.90;;;6.60;75.30;;;;;;5030160;28;20965;-53
2022/10/26 02:59:24;;;;;;;5.53;3.60;;;6.60;75.50;;;;;;5030025;28;20467;-52
2022/10/26 03:01:53;;;;;;;6.40;3.70;;;6.60;76.20;;;;;;5022498;28;20467;-53
2022/10/26 03:04:27;;;;;;;4.10;3.10;;;6.60;75.80;;;;;;5028130;28;20529;-53
2022/10/26 03:06:54;;;;;;;6.03;4.10;;;6.50;76.50;;;;;;5023972;28;20532;-52
2022/10/26 03:09:21;;;;;;;13.67;3.87;;;6.50;77.80;;;;;;5031848;28;20486;-54
2022/10/26 03:11:47;;;;;;;5.33;3.27;;;6.50;77.70;;;;;;5031336;28;20459;-54
2022/10/26 03:14:14;;;;;;;5.47;3.20;;;6.50;77.20;;;;;;5031302;28;21016;-53
2022/10/26 03:16:40;;;;;;;9.70;3.17;;;6.50;76.90;;;;;;5031134;28;20556;-53
2022/10/26 03:19:07;;;;;;;4.30;2.60;;;6.40;77.90;;;;;;5032560;28;20455;-53
2022/10/26 03:21:35;;;;;;;4.40;3.13;;;6.40;76.70;;;;;;5031659;28;20513;-52
2022/10/26 03:24:01;;;;;;;3.47;3.17;;;6.40;77.40;;;;;;5032632;28;20961;-53
2022/10/26 03:26:28;;;;;;;5.90;3.20;;;6.40;77.50;;;;;;5031987;28;20455;-53
2022/10/26 03:28:55;;;;;;;17.63;4.47;;;6.40;77.40;;;;;;5031224;28;20511;-53
2022/10/26 03:31:21;;;;;;;8.67;3.80;;;6.30;77.80;;;;;;5031795;28;20512;-52
2022/10/26 03:33:48;;;;;;;5.90;4.20;;;6.30;78.60;;;;;;5033486;28;21031;-53
2022/10/26 03:36:14;;;;;;;3.97;3.67;;;6.30;78.30;;;;;;5031760;28;20520;-52
2022/10/26 03:38:42;;;;;;;3.47;3.20;;;6.30;77.70;;;;;;5032021;28;20493;-53
2022/10/26 03:41:09;;;;;;;5.37;3.67;;;6.30;77.90;;;;;;5030082;28;20548;-52
2022/10/26 03:43:35;;;;;;;9.43;4.13;;;6.30;78.40;;;;;;5030306;28;20536;-52
2022/10/26 03:46:02;;;;;;;7.10;3.57;;;6.20;78.60;;;;;;5029691;28;21070;-53
2022/10/26 03:48:29;;;;;;;17.53;4.03;;;6.30;78.20;;;;;;5030113;28;20518;-52
2022/10/26 03:50:58;;;;;;;7.17;3.67;;;6.20;78.90;;;;;;5031435;28;20520;-53
2022/10/26 03:53:25;;;;;;;4.23;3.60;;;6.20;78.80;;;;;;5031443;28;20459;-53
2022/10/26 03:55:53;;;;;;;3.30;3.10;;;6.20;78.80;;;;;;5030796;28;20478;-51
2022/10/26 03:58:19;;;;;;;9.77;3.90;;;6.20;78.30;;;;;;5031748;28;20450;-52
2022/10/26 04:00:47;;;;;;;6.23;3.77;;;6.20;78.80;;;;;;5030209;28;20517;-52
2022/10/26 04:03:13;;;;;;;7.60;3.70;;;6.20;79.30;;;;;;5032355;28;20459;-52
2022/10/26 04:05:40;;;;;;;6.07;3.57;;;6.20;78.60;;;;;;5031720;28;20644;-53
2022/10/26 04:08:08;;;;;;;7.93;4.13;;;6.20;80.20;;;;;;5032545;28;20474;-53
2022/10/26 04:10:34;;;;;;;7.53;4.10;;;6.20;79.30;;;;;;5025265;28;20487;-53
2022/10/26 04:13:02;;;;;;;13.73;3.60;;;6.20;79.10;;;;;;5031761;28;21063;-52
2022/10/26 04:15:29;;;;;;;4.57;3.27;;;6.20;79.40;;;;;;5027356;28;20605;-53
2022/10/26 04:17:57;;;;;;;4.53;3.23;;;6.20;79.70;;;;;;5032093;28;20552;-52
2022/10/26 04:20:24;;;;;;;6.20;3.80;;;6.20;80.30;;;;;;5031777;28;20439;-53
2022/10/26 04:22:57;;;;;;;5.53;4.13;;;6.20;80.10;;;;;;5024242;28;20497;-52
2022/10/26 04:25:24;;;;;;;6.67;4.10;;;6.10;81.00;;;;;;5026836;28;20496;-53
2022/10/26 04:27:51;;;;;;;6.90;3.47;;;6.20;81.10;;;;;;5030873;28;20443;-52
2022/10/26 04:30:19;;;;;;;4.33;3.50;;;6.10;81.20;;;;;;5030852;28;20561;-52
2022/10/26 04:32:46;;;;;;;5.23;4.03;;;6.10;82.20;;;;;;5031791;28;20455;-52
2022/10/26 04:35:12;;;;;;;8.60;4.00;;;6.10;80.40;;;;;;5030743;28;20548;-52
2022/10/26 04:37:39;;;;;;;5.60;4.37;;;6.10;80.40;;;;;;5027856;28;20455;-52
2022/10/26 04:40:06;;;;;;;3.97;3.53;;;6.10;81.00;;;;;;5024958;28;20514;-53
2022/10/26 04:42:40;;;;;;;6.90;3.93;;;6.00;80.80;;;;;;5025505;28;20548;-53
2022/10/26 04:45:08;;;;;;;6.20;4.20;;;6.10;80.60;;;;;;5031085;28;20625;-51
2022/10/26 04:47:36;;;;;;;13.97;3.93;;;6.10;80.10;;;;;;5029983;28;20541;-52
2022/10/26 04:50:03;;;;;;;3.90;3.53;;;6.00;81.10;;;;;;5031101;28;20906;-52
2022/10/26 04:52:30;;;;;;;3.93;3.47;;;6.10;80.00;;;;;;5029531;28;20463;-52
2022/10/26 04:54:56;;;;;;;14.30;4.77;;;6.00;82.30;;;;;;5030345;28;20479;-52
2022/10/26 04:57:23;;;;;;;5.33;4.40;;;6.00;82.70;;;;;;5028361;28;20490;-52
2022/10/26 04:59:49;;;;;;;4.80;4.00;;;6.00;82.50;;;;;;5031934;28;20466;-52
2022/10/26 05:02:16;;;;;;;5.63;3.90;;;6.00;81.90;;;;;;5024275;28;21039;-52
2022/10/26 05:04:44;;;;;;;4.33;3.73;;;6.00;82.90;;;;;;5029442;28;21073;-52
2022/10/26 05:07:10;;;;;;;7.23;4.07;;;6.00;82.00;;;;;;5027553;28;20542;-51
2022/10/26 05:09:37;;;;;;;7.30;4.23;;;6.00;82.50;;;;;;5031256;28;20478;-52
2022/10/26 05:12:04;;;;;;;21.30;4.60;;;6.00;82.80;;;;;;5028686;28;20556;-52
2022/10/26 05:14:31;;;;;;;6.00;4.80;;;6.10;83.00;;;;;;5030625;28;20490;-52
2022/10/26 05:16:57;;;;;;;14.37;4.50;;;6.10;83.30;;;;;;5028794;28;20458;-52
2022/10/26 05:19:24;;;;;;;8.40;4.60;;;6.10;83.00;;;;;;5031085;28;20481;-52
2022/10/26 05:21:52;;;;;;;7.67;4.83;;;6.10;81.60;;;;;;5027491;28;20553;-52
2022/10/26 05:24:19;;;;;;;4.93;4.30;;;6.10;82.50;;;;;;5030750;28;20482;-52
2022/10/26 05:26:45;;;;;;;7.30;5.23;;;6.10;82.80;;;;;;5029195;28;20513;-52
2022/10/26 05:29:12;;;;;;;46.87;21.90;;;6.10;85.00;;;;;;5029047;28;21004;-53
2022/10/26 05:31:38;;;;;;;95.27;44.93;;;6.10;84.90;;;;;;5028343;28;20463;-52
2022/10/26 05:34:05;;;;;;;42.47;23.77;;;6.20;83.70;;;;;;5030355;28;20516;-53
2022/10/26 05:36:31;;;;;;;49.93;26.90;;;6.10;86.00;;;;;;5029799;28;20493;-52
2022/10/26 05:39:00;;;;;;;39.57;22.00;;;6.10;88.60;;;;;;5035076;28;20505;-50
2022/10/26 05:41:26;;;;;;;45.10;22.87;;;6.10;89.30;;;;;;5033556;28;20458;-52
2022/10/26 05:43:53;;;;;;;40.93;18.23;;;6.10;89.80;;;;;;5033052;28;20463;-51
2022/10/26 05:46:20;;;;;;;32.90;18.10;;;6.10;90.90;;;;;;5032901;28;20459;-52
2022/10/26 05:48:46;;;;;;;43.10;23.80;;;6.10;91.70;;;;;;5033929;28;20486;-51
2022/10/26 05:51:13;;;;;;;47.03;23.70;;;6.10;88.90;;;;;;5031362;28;20959;-52
2022/10/26 05:53:39;;;;;;;37.17;20.50;;;6.20;85.30;;;;;;5034333;28;20466;-53
2022/10/26 05:56:18;;;;;;;24.73;14.27;;;6.20;86.90;;;;;;5033823;28;20909;-52
2022/10/26 05:58:45;;;;;;;17.27;9.93;;;6.30;84.00;;;;;;5034200;28;20551;-53
2022/10/26 06:01:23;;;;;;;14.47;9.30;;;6.30;82.60;;;;;;5033713;28;20491;-51
2022/10/26 06:04:01;;;;;;;8.77;7.10;;;6.30;82.50;;;;;;5026824;28;20467;-52
2022/10/26 06:06:34;;;;;;;10.60;6.60;;;6.30;81.40;;;;;;5030849;28;20461;-53
2022/10/26 06:09:01;;;;;;;11.13;5.77;;;6.40;79.50;;;;;;5034261;28;20514;-52
2022/10/26 06:11:29;;;;;;;6.17;5.57;;;6.40;81.40;;;;;;5033762;28;20528;-52
2022/10/26 06:13:59;;;;;;;8.33;5.90;;;6.40;80.20;;;;;;5034152;28;20462;-52
2022/10/26 06:16:33;;;;;;;12.53;5.70;;;6.50;78.50;;;;;;5032367;28;20466;-53
2022/10/26 06:19:14;;;;;;;9.23;5.70;;;6.50;77.70;;;;;;5028215;28;20506;-52
2022/10/26 06:21:56;;;;;;;8.70;5.13;;;6.50;77.90;;;;;;5026268;28;21046;-52
2022/10/26 06:24:29;;;;;;;9.70;6.20;;;6.50;77.10;;;;;;5026328;28;20479;-52
2022/10/26 06:27:02;;;;;;;8.80;5.93;;;6.60;76.40;;;;;;5028463;28;20458;-52
2022/10/26 06:29:41;;;;;;;9.13;5.27;;;6.60;76.00;;;;;;5033980;28;20922;-52
2022/10/26 06:32:09;;;;;;;8.30;6.70;;;6.60;75.40;;;;;;5031908;28;20520;-52
2022/10/26 06:34:37;;;;;;;6.83;5.67;;;6.70;76.20;;;;;;5028362;28;20579;-52
2022/10/26 06:37:04;;;;;;;13.23;7.33;;;6.70;76.90;;;;;;5027829;28;20486;-52
2022/10/26 06:39:35;;;;;;;6.60;5.10;;;6.70;78.10;;;;;;5032886;28;20454;-52
2022/10/26 06:42:03;;;;;;;8.13;5.40;;;6.70;77.80;;;;;;5028827;28;20522;-53
2022/10/26 06:44:30;;;;;;;9.37;5.33;;;6.70;77.00;;;;;;5031973;28;20521;-52
2022/10/26 06:47:05;;;;;;;5.90;4.63;;;6.80;74.90;;;;;;5028051;28;20467;-52
2022/10/26 06:49:36;;;;;;;10.17;5.80;;;6.80;75.90;;;;;;5030536;28;21043;-52
2022/10/26 06:52:11;;;;;;;11.07;5.20;;;6.90;75.30;;;;;;5031439;28;20459;-53
2022/10/26 06:54:48;;;;;;;6.90;5.20;;;6.90;75.40;;;;;;5031628;28;20536;-53
2022/10/26 06:57:18;;;;;;;11.77;5.70;;;7.00;75.60;;;;;;5031090;28;20481;-53
2022/10/26 06:59:48;;;;;;;7.70;4.50;;;7.10;74.80;;;;;;5033409;28;20520;-53
2022/10/26 07:02:14;;;;;;;5.23;4.73;;;7.20;74.00;;;;;;5026996;28;20940;-52
2022/10/26 07:04:41;;;;;;;8.40;4.67;;;7.30;74.90;;;;;;5031506;28;20487;-52
2022/10/26 07:07:09;;;;;;;7.07;4.70;;;7.40;74.90;;;;;;5032281;28;20547;-52
2022/10/26 07:09:36;;;;;;;17.00;5.27;;;7.60;81.60;;;;;;5032681;28;20475;-52
2022/10/26 07:12:02;;;;;;;8.07;4.60;;;7.70;84.90;;;;;;5031272;28;20960;-52
2022/10/26 07:14:30;;;;;;;11.53;6.67;;;7.90;96.00;;;;;;5031476;28;20467;-53
2022/10/26 07:16:57;;;;;;;8.33;5.77;;;8.10;96.60;;;;;;5029746;28;20494;-52
2022/10/26 07:19:24;;;;;;;7.10;5.53;;;8.40;99.90;;;;;;5033543;28;20821;-52
2022/10/26 07:21:50;;;;;;;8.73;7.13;;;8.60;99.90;;;;;;5027169;28;20557;-52
2022/10/26 07:24:17;;;;;;;13.93;6.57;;;8.90;99.90;;;;;;5032882;28;20532;-52
2022/10/26 07:26:43;;;;;;;8.37;6.17;;;9.20;99.90;;;;;;5030025;28;21057;-53
2022/10/26 07:29:10;;;;;;;7.83;6.33;;;9.30;99.90;;;;;;5032422;28;20947;-51
2022/10/26 07:31:38;;;;;;;7.40;6.47;;;9.50;99.90;;;;;;5026999;28;20462;-52
2022/10/26 07:34:05;;;;;;;11.73;6.13;;;9.90;99.90;;;;;;5030551;28;20951;-52
2022/10/26 07:36:31;;;;;;;9.87;6.00;;;10.10;27.20;;;;;;5031435;28;21038;-53
2022/10/26 07:38:58;;;;;;;9.37;5.57;;;10.30;51.90;;;;;;5031439;28;20462;-51
2022/10/26 07:41:24;;;;;;;9.57;5.73;;;10.70;87.30;;;;;;5033156;28;20511;-52
2022/10/26 07:43:51;;;;;;;8.37;5.80;;;11.10;99.90;;;;;;5030777;28;20976;-52
2022/10/26 07:46:18;;;;;;;10.07;5.57;;;11.30;99.90;;;;;;5028607;28;20512;-52
2022/10/26 07:48:46;;;;;;;7.70;5.97;;;11.30;99.90;;;;;;5032875;28;20501;-51
2022/10/26 07:51:12;;;;;;;7.20;6.10;;;11.10;87.70;;;;;;5028318;28;20548;-53
2022/10/26 07:53:39;;;;;;;13.20;7.80;;;11.10;83.90;;;;;;5029857;28;20458;-54
2022/10/26 07:56:07;;;;;;;9.77;7.30;;;11.10;69.30;;;;;;5028231;28;20838;-54
2022/10/26 07:58:34;;;;;;;8.40;6.73;;;11.20;66.30;;;;;;5032558;28;20473;-54
2022/10/26 08:01:06;;;;;;;8.53;6.37;;;11.30;57.50;;;;;;5024088;28;20483;-54
2022/10/26 08:03:32;;;;;;;8.50;7.07;;;11.40;75.30;;;;;;5032720;28;20453;-54
2022/10/26 08:06:01;;;;;;;8.63;6.50;;;11.50;71.40;;;;;;5030265;28;20544;-53
2022/10/26 08:08:28;;;;;;;7.70;5.40;;;11.50;71.10;;;;;;5030198;28;20953;-52
2022/10/26 08:10:54;;;;;;;7.10;6.40;;;11.50;60.10;;;;;;5030673;28;20583;-53
2022/10/26 08:13:21;;;;;;;9.77;6.40;;;11.50;44.50;;;;;;5032762;28;20443;-52
2022/10/26 08:15:48;;;;;;;7.50;6.63;;;11.50;31.80;;;;;;5026544;28;20483;-52
2022/10/26 08:18:14;;;;;;;8.93;5.90;;;11.90;40.40;;;;;;5026734;28;20459;-52
2022/10/26 08:20:41;;;;;;;13.13;7.07;;;12.10;62.30;;;;;;5023551;28;20490;-53
2022/10/26 08:23:09;;;;;;;12.40;7.40;;;12.20;56.70;;;;;;5030526;28;20947;-52
2022/10/26 08:25:36;;;;;;;7.73;6.10;;;12.40;65.80;;;;;;5030140;28;20510;-52
2022/10/26 08:28:03;;;;;;;12.67;7.23;;;12.30;66.20;;;;;;5031770;28;20463;-52
2022/10/26 08:30:30;;;;;;;12.80;7.83;;;12.30;62.20;;;;;;5028848;28;21003;-52
2022/10/26 08:33:01;;;;;;;8.83;7.20;;;12.60;50.00;;;;;;5028580;28;20583;-53
2022/10/26 08:35:28;;;;;;;10.33;8.00;;;12.70;79.80;;;;;;5031993;28;20462;-52
2022/10/26 08:37:55;;;;;;;11.80;7.80;;;12.90;78.00;;;;;;5030567;28;20451;-53
2022/10/26 08:40:27;;;;;;;10.07;7.73;;;13.80;99.90;;;;;;5032076;28;20435;-53
2022/10/26 08:43:00;;;;;;;12.20;7.50;;;14.90;99.90;;;;;;5027792;28;20458;-51
2022/10/26 08:45:31;;;;;;;10.80;7.70;;;15.00;99.90;;;;;;5030855;28;20540;-54
2022/10/26 08:48:01;;;;;;;8.97;6.87;;;15.60;99.90;;;;;;5025086;28;20952;-52
2022/10/26 08:50:32;;;;;;;10.73;7.63;;;16.30;42.30;;;;;;5031841;28;20984;-52
2022/10/26 08:53:07;;;;;;;40.40;6.37;;;16.10;59.80;;;;;;5030671;28;20839;-53
2022/10/26 08:55:44;;;;;;;9.00;6.90;;;17.60;84.30;;;;;;5030219;28;20535;-52
2022/10/26 08:58:15;;;;;;;13.33;7.27;;;17.80;84.10;;;;;;5029862;28;21050;-53
2022/10/26 09:00:42;;;;;;;8.60;7.60;;;17.60;86.60;;;;;;5031896;28;20535;-51
2022/10/26 09:03:14;;;;;;;10.23;8.10;;;16.90;84.70;;;;;;5025129;28;20491;-53
2022/10/26 09:05:53;;;;;;;9.60;7.70;;;16.80;62.60;;;;;;5028440;28;20504;-53
2022/10/26 09:08:29;;;;;;;10.47;7.47;;;16.30;42.30;;;;;;5029772;28;20442;-52
2022/10/26 09:11:07;;;;;;;12.20;8.60;;;16.20;50.40;;;;;;5011628;28;20489;-53
2022/10/26 09:13:42;;;;;;;14.70;8.40;;;16.30;43.60;;;;;;5027184;28;20520;-52
2022/10/26 09:16:17;;;;;;;11.33;7.60;;;16.10;43.20;;;;;;5030097;28;20482;-52
2022/10/26 09:18:53;;;;;;;12.13;7.53;;;15.90;88.80;;;;;;5029933;28;20463;-52
2022/10/26 09:21:32;;;;;;;12.77;7.80;;;16.00;33.50;;;;;;5030744;28;20435;-52
2022/10/26 09:24:06;;;;;;;11.40;8.40;;;16.00;85.50;;;;;;5024519;28;20490;-53
2022/10/26 09:26:42;;;;;;;14.27;9.00;;;15.90;93.50;;;;;;5029351;28;20459;-53
2022/10/26 09:29:12;;;;;;;10.00;8.00;;;16.50;28.30;;;;;;5030836;28;20481;-52
2022/10/26 09:31:44;;;;;;;10.77;7.83;;;17.90;66.70;;;;;;5021447;28;20846;-53
2022/10/26 09:34:20;;;;;;;13.80;8.43;;;18.30;89.20;;;;;;5022927;28;20522;-54
2022/10/26 09:36:46;;;;;;;11.57;7.43;;;18.30;89.70;;;;;;5026765;28;20964;-52
2022/10/26 09:39:21;;;;;;;21.83;8.67;;;18.70;99.90;;;;;;5028307;28;20518;-53
2022/10/26 09:41:55;;;;;;;14.40;9.33;;;19.50;99.90;;;;;;5025463;28;20453;-52
2022/10/26 09:44:26;;;;;;;12.77;7.80;;;19.90;99.90;;;;;;5027936;28;20506;-52
2022/10/26 09:46:58;;;;;;;14.97;8.57;;;20.10;99.90;;;;;;5024579;28;20542;-52
2022/10/26 09:49:31;;;;;;;11.73;8.53;;;19.40;99.90;;;;;;5030871;28;20493;-52
2022/10/26 09:51:58;;;;;;;11.43;8.30;;;20.40;99.90;;;;;;5022244;28;20482;-53
2022/10/26 09:54:25;;;;;;;9.77;7.97;;;20.60;99.90;;;;;;5039287;28;20981;-53
2022/10/26 09:56:56;;;;;;;11.97;8.23;;;19.80;99.90;;;;;;5028527;28;20496;-52
2022/10/26 09:59:25;;;;;;;11.40;8.47;;;18.80;99.90;;;;;;5029371;28;20533;-53
2022/10/26 10:01:51;;;;;;;10.07;7.70;;;20.20;99.90;;;;;;5029350;28;20450;-53
2022/10/26 10:04:21;;;;;;;9.63;7.67;;;19.90;99.90;;;;;;5029227;28;20471;-52
2022/10/26 10:06:49;;;;;;;11.53;8.87;;;20.70;99.90;;;;;;5027663;28;20459;-53
2022/10/26 10:09:18;;;;;;;18.00;7.40;;;22.00;99.90;;;;;;5030379;28;20490;-51
2022/10/26 10:11:53;;;;;;;11.63;7.80;;;21.90;99.90;;;;;;5035232;28;20488;-52
2022/10/26 10:14:23;;;;;;;11.87;8.10;;;20.80;99.90;;;;;;5039262;28;20477;-53
2022/10/26 10:16:52;;;;;;;10.57;7.70;;;19.60;99.90;;;;;;5029409;28;20458;-51
2022/10/26 10:19:24;;;;;;;11.83;8.00;;;18.90;99.90;;;;;;5025166;28;20976;-52
2022/10/26 10:21:54;;;;;;;15.07;10.60;;;17.90;80.80;;;;;;5027355;28;20462;-52
2022/10/26 10:24:26;;;;;;;12.77;8.03;;;17.20;64.90;;;;;;5033329;28;20572;-52
2022/10/26 10:26:57;;;;;;;11.40;7.50;;;17.60;60.10;;;;;;5030905;28;20459;-51
2022/10/26 10:29:26;;;;;;;17.27;8.90;;;17.90;76.50;;;;;;5033320;28;20953;-52
2022/10/26 10:31:56;;;;;;;13.47;8.30;;;18.10;74.60;;;;;;5028373;28;20897;-52
2022/10/26 10:34:23;;;;;;;9.00;8.03;;;17.60;63.10;;;;;;5026209;28;20519;-52
2022/10/26 10:36:50;;;;;;;12.00;7.40;;;17.60;60.30;;;;;;5031466;28;20467;-53
2022/10/26 10:39:38;;;;;;;9.10;8.20;;;17.20;54.40;;;;;;5031580;28;20545;-53
2022/10/26 10:42:13;;;;;;;15.20;7.90;;;17.80;55.70;;;;;;5029160;28;20458;-52
2022/10/26 10:44:44;;;;;;;14.73;8.50;;;17.60;53.00;;;;;;5033487;28;20486;-52
2022/10/26 10:47:21;;;;;;;9.07;6.37;;;17.80;54.20;;;;;;5031821;28;20537;-57
2022/10/26 10:49:53;;;;;;;12.03;6.27;;;17.40;40.70;;;;;;5031695;28;20482;-54
2022/10/26 10:52:28;;;;;;;10.30;6.80;;;17.20;36.20;;;;;;5029014;28;20849;-52
2022/10/26 10:55:08;;;;;;;9.80;5.20;;;17.20;40.70;;;;;;5028589;28;20532;-53
2022/10/26 10:57:44;;;;;;;9.20;5.07;;;17.00;46.80;;;;;;5033411;28;20524;-54
2022/10/26 11:00:13;;;;;;;8.20;5.37;;;17.40;47.80;;;;;;5029431;28;20811;-55
2022/10/26 11:02:55;;;;;;;9.50;4.23;;;17.30;46.60;;;;;;5027805;28;20540;-55
2022/10/26 11:05:30;;;;;;;6.53;3.67;;;17.20;46.10;;;;;;5031534;28;21710;-53
2022/10/26 11:08:04;;;;;;;6.23;3.60;;;17.20;50.20;;;;;;5030998;28;20462;-55
2022/10/26 11:10:35;;;;;;;6.50;3.70;;;17.20;39.00;;;;;;5031093;28;20928;-53
2022/10/26 11:13:06;;;;;;;9.97;3.43;;;17.30;46.70;;;;;;5027125;28;20956;-54
2022/10/26 11:15:37;;;;;;;14.47;3.63;;;17.40;45.30;;;;;;5025831;28;20999;-55
2022/10/26 11:18:09;;;;;;;6.80;2.80;;;18.30;64.70;;;;;;5030527;28;20454;-53
2022/10/26 11:20:41;;;;;;;4.03;2.47;;;18.60;81.60;;;;;;5031189;28;20545;-54
2022/10/26 11:23:12;;;;;;;5.17;3.30;;;18.80;99.90;;;;;;5033471;28;20504;-53
2022/10/26 11:25:48;;;;;;;5.63;2.77;;;18.40;94.60;;;;;;5031926;28;20479;-52
2022/10/26 11:28:18;;;;;;;9.93;3.13;;;17.90;94.70;;;;;;5032888;28;20458;-54
2022/10/26 11:30:51;;;;;;;5.60;2.97;;;17.80;85.70;;;;;;5026235;28;20506;-54
2022/10/26 11:33:23;;;;;;;5.27;2.47;;;17.70;85.40;;;;;;5032679;28;20459;-53
2022/10/26 11:35:58;;;;;;;5.13;2.73;;;17.60;80.30;;;;;;5028475;28;20556;-55
2022/10/26 11:38:30;;;;;;;7.77;3.17;;;17.50;80.10;;;;;;5027028;28;20521;-54
2022/10/26 11:41:02;;;;;;;7.63;2.93;;;17.50;72.80;;;;;;5024562;28;20465;-54
2022/10/26 11:43:35;;;;;;;6.90;2.57;;;17.50;66.90;;;;;;5027714;28;20592;-55
2022/10/26 11:46:08;;;;;;;8.20;2.83;;;17.50;80.60;;;;;;5022269;28;20482;-54
2022/10/26 11:48:42;;;;;;;6.93;3.07;;;17.50;77.20;;;;;;5030122;28;20544;-54
2022/10/26 11:51:16;;;;;;;6.93;2.77;;;17.80;84.50;;;;;;5029836;28;20509;-53
2022/10/26 11:53:44;;;;;;;4.70;2.57;;;18.40;92.20;;;;;;5031800;28;20500;-53
2022/10/26 11:56:19;;;;;;;9.10;2.80;;;18.90;97.20;;;;;;5029146;28;20526;-53
2022/10/26 11:58:46;;;;;;;6.70;2.60;;;19.00;99.90;;;;;;5028563;28;20579;-54
2022/10/26 12:01:16;;;;;;;7.83;3.03;;;18.90;99.90;;;;;;5030847;28;20509;-54
2022/10/26 12:03:46;;;;;;;4.70;2.50;;;18.80;99.90;;;;;;5032889;28;20520;-52
2022/10/26 12:06:15;;;;;;;4.10;3.03;;;18.40;99.90;;;;;;5028415;28;20564;-55
2022/10/26 12:08:43;;;;;;;10.30;2.60;;;19.00;99.90;;;;;;5032549;28;20960;-54
2022/10/26 12:11:21;;;;;;;6.37;2.30;;;18.80;99.90;;;;;;5031573;28;20561;-54
2022/10/26 12:13:54;;;;;;;14.03;2.70;;;18.40;99.90;;;;;;5031810;28;20500;-55
2022/10/26 12:16:40;;;;;;;7.50;3.40;;;19.00;99.90;;;;;;5031097;28;20478;-53
2022/10/26 12:19:15;;;;;;;3.90;2.20;;;19.10;99.90;;;;;;5025869;28;20443;-54
2022/10/26 12:21:43;;;;;;;3.33;1.80;;;18.80;99.90;;;;;;5026019;28;20485;-55
2022/10/26 12:24:25;;;;;;;4.00;2.60;;;18.70;99.90;;;;;;5026761;28;20461;-54
2022/10/26 12:26:53;;;;;;;4.90;2.30;;;18.50;99.90;;;;;;5023132;28;20463;-55
2022/10/26 12:29:46;;;;;;;2.53;2.17;;;18.20;99.90;;;;;;5030726;28;20462;-54
2022/10/26 12:32:50;;;;;;;4.50;2.50;;;17.90;99.90;;;;;;5028036;28;20475;-54
2022/10/26 12:35:41;;;;;;;4.90;2.57;;;18.00;96.90;;;;;;4964946;28;20935;-53
2022/10/26 12:38:55;;;;;;;6.30;2.60;;;19.40;99.90;;;;;;4969762;28;20454;-54
2022/10/26 12:41:26;;;;;;;3.57;2.30;;;18.90;99.90;;;;;;4976621;28;20460;-55
2022/10/26 12:43:57;;;;;;;2.73;2.30;;;19.10;99.90;;;;;;4980918;28;20970;-53
2022/10/26 12:46:40;;;;;;;2.50;2.03;;;19.00;99.90;;;;;;5012116;28;20459;-54
2022/10/26 12:49:46;;;;;;;3.80;2.73;;;18.70;99.90;;;;;;5032127;28;20439;-54
2022/10/26 12:52:25;;;;;;;6.30;2.50;;;19.20;99.90;;;;;;4962865;28;20504;-53
2022/10/26 12:55:14;;;;;;;5.40;2.60;;;18.80;99.90;;;;;;5026923;28;20941;-54
2022/10/26 12:57:50;;;;;;;9.37;2.60;;;19.20;99.90;;;;;;5030949;28;20463;-53
2022/10/26 13:00:21;;;;;;;8.00;2.50;;;20.90;99.90;;;;;;5024520;28;20980;-53
2022/10/26 13:03:02;;;;;;;3.93;2.70;;;20.50;99.90;;;;;;5023036;28;20462;-55
2022/10/26 13:05:59;;;;;;;5.60;2.50;;;19.60;99.90;;;;;;5030190;28;20898;-53